Time;durP1;ratioP1;P1;durP2;ratioP2;P2;SDS_P1;SDS_P2;PMS_P1;PMS_P2;Temp;Humidity;BMP_temperature;BMP_pressure;BME280_temperature;BME280_humidity;BME280_pressure;Samples;Min_cycle;Max_cycle;Signal;HPM_P1;HPM_P2
2023/07/23 00:01:47;;;;;;;5.07;3.45;;;15.80;99.90;;;;;;4991314;28;20104;-82
2023/07/23 00:04:12;;;;;;;4.85;3.25;;;15.80;99.90;;;;;;4992811;28;20053;-81
2023/07/23 00:06:39;;;;;;;5.53;3.05;;;15.70;99.90;;;;;;4991605;28;20030;-83
2023/07/23 00:09:04;;;;;;;5.88;3.55;;;15.70;99.90;;;;;;4992807;28;21512;-82
2023/07/23 00:11:30;;;;;;;7.07;3.17;;;15.60;99.90;;;;;;4993289;28;20100;-82
2023/07/23 00:13:56;;;;;;;6.40;3.35;;;15.60;99.90;;;;;;4993175;28;20068;-82
2023/07/23 00:16:23;;;;;;;7.00;3.80;;;15.60;99.90;;;;;;4992275;28;20027;-82
2023/07/23 00:18:49;;;;;;;5.57;3.28;;;15.60;99.90;;;;;;4991145;28;20117;-82
2023/07/23 00:21:15;;;;;;;6.13;3.35;;;15.60;99.90;;;;;;4993406;28;20032;-82
2023/07/23 00:23:40;;;;;;;5.35;3.75;;;15.50;99.90;;;;;;4992772;28;20019;-82
2023/07/23 00:26:06;;;;;;;5.35;3.03;;;15.50;99.90;;;;;;4992523;28;20065;-82
2023/07/23 00:28:32;;;;;;;5.38;3.40;;;15.50;99.90;;;;;;4992098;28;20129;-83
2023/07/23 00:30:58;;;;;;;5.15;3.00;;;15.50;99.90;;;;;;4991278;28;20129;-82
2023/07/23 00:33:24;;;;;;;5.97;3.40;;;15.50;99.90;;;;;;4992093;28;20113;-82
2023/07/23 00:35:50;;;;;;;6.13;3.80;;;15.50;99.90;;;;;;4992040;28;20034;-82
2023/07/23 00:38:15;;;;;;;5.50;3.65;;;15.50;99.90;;;;;;4990692;28;20026;-82
2023/07/23 00:40:41;;;;;;;7.00;3.47;;;15.50;99.90;;;;;;4989830;28;20030;-82
2023/07/23 00:43:07;;;;;;;5.10;3.25;;;15.50;99.90;;;;;;4991542;28;20030;-83
2023/07/23 00:45:32;;;;;;;6.53;3.78;;;15.50;99.90;;;;;;4993170;28;20109;-82
2023/07/23 00:47:59;;;;;;;7.22;3.40;;;15.60;99.90;;;;;;4992043;28;20397;-82
2023/07/23 00:50:29;;;;;;;5.35;3.53;;;15.60;99.90;;;;;;4991834;28;20044;-82
2023/07/23 00:52:55;;;;;;;5.22;3.47;;;15.60;99.90;;;;;;4993164;28;20030;-82
2023/07/23 00:55:20;;;;;;;7.53;3.88;;;15.60;99.90;;;;;;4993009;28;20018;-82
2023/07/23 00:57:46;;;;;;;10.60;3.90;;;15.60;99.90;;;;;;4992369;28;20037;-82
2023/07/23 01:00:12;;;;;;;8.77;4.15;;;15.60;99.90;;;;;;4992252;28;20041;-82
2023/07/23 01:02:38;;;;;;;5.15;3.80;;;15.60;99.90;;;;;;4992190;28;20034;-82
2023/07/23 01:05:04;;;;;;;6.18;3.65;;;15.60;99.90;;;;;;4992296;28;20037;-83
2023/07/23 01:07:32;;;;;;;5.88;3.78;;;15.60;99.90;;;;;;4992113;28;20023;-82
2023/07/23 01:09:59;;;;;;;6.20;4.20;;;15.70;99.90;;;;;;4993335;28;20049;-81
2023/07/23 01:12:26;;;;;;;9.35;3.75;;;15.60;99.90;;;;;;4992896;28;20058;-81
2023/07/23 01:14:52;;;;;;;6.50;4.03;;;15.70;99.90;;;;;;4994005;28;20037;-82
2023/07/23 01:17:19;;;;;;;6.45;3.95;;;15.70;99.90;;;;;;4990409;28;20038;-82
2023/07/23 01:19:46;;;;;;;5.57;3.63;;;15.70;99.90;;;;;;4992196;28;20110;-82
2023/07/23 01:22:11;;;;;;;4.93;3.45;;;15.70;99.90;;;;;;4991385;28;20377;-83
2023/07/23 01:24:37;;;;;;;6.90;4.25;;;15.70;99.90;;;;;;4992796;28;20037;-82
2023/07/23 01:27:03;;;;;;;8.07;3.85;;;15.70;99.90;;;;;;4991086;28;20037;-82
2023/07/23 01:29:29;;;;;;;6.82;4.28;;;15.80;99.90;;;;;;4992159;28;20037;-82
2023/07/23 01:31:54;;;;;;;6.47;3.90;;;15.70;99.90;;;;;;4993365;28;20069;-82
2023/07/23 01:34:21;;;;;;;7.28;3.95;;;15.70;99.90;;;;;;4992076;28;20109;-82
2023/07/23 01:36:47;;;;;;;8.48;4.50;;;15.70;99.90;;;;;;4993265;28;20033;-82
2023/07/23 01:39:13;;;;;;;6.22;4.15;;;15.70;99.90;;;;;;4992679;28;20038;-82
2023/07/23 01:41:38;;;;;;;5.70;3.92;;;15.80;99.90;;;;;;4992573;28;20030;-82
2023/07/23 01:44:05;;;;;;;6.63;3.83;;;15.70;99.90;;;;;;4991798;28;20042;-83
2023/07/23 01:46:30;;;;;;;6.68;4.28;;;15.70;99.90;;;;;;4992028;28;20480;-82
2023/07/23 01:48:56;;;;;;;5.38;3.67;;;15.70;99.90;;;;;;4992922;28;20030;-82
2023/07/23 01:51:22;;;;;;;9.30;5.38;;;15.70;99.90;;;;;;4991928;28;20033;-83
2023/07/23 01:53:47;;;;;;;5.65;3.97;;;15.60;99.90;;;;;;4992635;28;20054;-82
2023/07/23 01:56:13;;;;;;;7.85;4.25;;;15.60;99.90;;;;;;4992059;28;20515;-82
2023/07/23 01:58:38;;;;;;;5.68;3.83;;;15.60;99.90;;;;;;4993440;28;20942;-82
2023/07/23 02:01:04;;;;;;;5.28;3.58;;;15.60;99.90;;;;;;4993313;28;20491;-82
2023/07/23 02:03:30;;;;;;;7.00;4.43;;;15.50;99.90;;;;;;4992318;28;20416;-82
2023/07/23 02:06:00;;;;;;;5.63;4.13;;;15.50;99.90;;;;;;4991240;28;20468;-82
2023/07/23 02:08:26;;;;;;;5.55;3.50;;;15.60;99.90;;;;;;4992631;28;20026;-82
2023/07/23 02:11:00;;;;;;;6.57;3.92;;;15.50;99.90;;;;;;4991090;28;20033;-82
2023/07/23 02:13:29;;;;;;;5.47;3.92;;;15.60;99.90;;;;;;4991360;28;20022;-81
2023/07/23 02:15:55;;;;;;;7.35;3.90;;;15.50;99.90;;;;;;4989697;28;20049;-82
2023/07/23 02:18:20;;;;;;;7.95;4.28;;;15.50;99.90;;;;;;4989574;28;20026;-83
2023/07/23 02:20:46;;;;;;;6.28;3.80;;;15.60;99.90;;;;;;4990250;28;20042;-83
2023/07/23 02:23:15;;;;;;;6.53;3.95;;;15.60;99.90;;;;;;4990465;28;20027;-82
2023/07/23 02:25:41;;;;;;;4.57;3.47;;;15.60;99.90;;;;;;4990410;28;20105;-82
2023/07/23 02:28:09;;;;;;;6.20;4.00;;;15.60;99.90;;;;;;4989435;28;20464;-82
2023/07/23 02:30:35;;;;;;;6.32;3.88;;;15.60;99.90;;;;;;4992558;28;20037;-82
2023/07/23 02:33:01;;;;;;;7.82;4.15;;;15.60;99.90;;;;;;4992693;28;21172;-82
2023/07/23 02:35:26;;;;;;;5.30;3.80;;;15.60;99.90;;;;;;4993750;28;20034;-82
2023/07/23 02:37:52;;;;;;;6.28;3.63;;;15.60;99.90;;;;;;4991037;28;20034;-82
2023/07/23 02:40:17;;;;;;;4.95;3.75;;;15.60;99.90;;;;;;4990375;28;20074;-82
2023/07/23 02:42:43;;;;;;;6.25;4.03;;;15.60;99.90;;;;;;4991291;28;20493;-84
2023/07/23 02:45:09;;;;;;;8.40;4.03;;;15.60;99.90;;;;;;4991214;28;20029;-83
2023/07/23 02:47:34;;;;;;;8.23;4.13;;;15.60;99.90;;;;;;4990567;28;20112;-82
2023/07/23 02:50:00;;;;;;;6.35;3.75;;;15.50;99.90;;;;;;4990840;28;20034;-82
2023/07/23 02:52:25;;;;;;;9.05;4.32;;;15.50;99.90;;;;;;4991705;28;20034;-82
2023/07/23 02:54:51;;;;;;;7.38;3.92;;;15.50;99.90;;;;;;4992145;28;20105;-82
2023/07/23 02:57:16;;;;;;;6.00;3.90;;;15.40;99.90;;;;;;4989767;28;20030;-82
2023/07/23 02:59:42;;;;;;;6.55;3.97;;;15.40;99.90;;;;;;4990257;28;20042;-82
2023/07/23 03:02:07;;;;;;;6.95;4.05;;;15.40;99.90;;;;;;4990356;28;20116;-82
2023/07/23 03:04:33;;;;;;;7.38;4.20;;;15.40;99.90;;;;;;4993869;28;20031;-82
2023/07/23 03:06:58;;;;;;;6.35;4.40;;;15.40;99.90;;;;;;4993837;28;20022;-82
2023/07/23 03:09:24;;;;;;;5.63;3.78;;;15.40;99.90;;;;;;4993969;28;20718;-82
2023/07/23 03:11:49;;;;;;;6.47;3.67;;;15.30;99.90;;;;;;4995174;28;20413;-82
2023/07/23 03:14:15;;;;;;;6.75;3.60;;;15.30;99.90;;;;;;4993882;28;20080;-82
2023/07/23 03:16:40;;;;;;;5.53;4.25;;;15.20;99.90;;;;;;4994886;28;20025;-82
2023/07/23 03:19:06;;;;;;;6.18;4.43;;;15.20;99.90;;;;;;4993586;28;20022;-82
2023/07/23 03:21:31;;;;;;;6.65;3.78;;;15.20;99.90;;;;;;4993118;28;20046;-82
2023/07/23 03:23:57;;;;;;;5.10;3.90;;;15.20;99.90;;;;;;4994391;28;20022;-82
2023/07/23 03:26:23;;;;;;;11.00;4.30;;;15.20;99.90;;;;;;4993819;28;20042;-82
2023/07/23 03:28:48;;;;;;;5.05;4.00;;;15.20;99.90;;;;;;4995798;28;20109;-82
2023/07/23 03:31:14;;;;;;;8.60;4.18;;;15.20;99.90;;;;;;4994696;28;20055;-82
2023/07/23 03:33:39;;;;;;;6.05;3.90;;;15.20;99.90;;;;;;4995089;28;20736;-82
2023/07/23 03:36:06;;;;;;;6.13;4.07;;;15.10;99.90;;;;;;4994588;28;20030;-82
2023/07/23 03:38:32;;;;;;;6.85;4.20;;;15.10;99.90;;;;;;4993182;28;20800;-82
2023/07/23 03:40:57;;;;;;;6.75;4.22;;;15.10;99.90;;;;;;4994714;28;20038;-83
2023/07/23 03:43:23;;;;;;;8.15;4.25;;;15.10;99.90;;;;;;4994291;28;20031;-82
2023/07/23 03:45:48;;;;;;;9.00;3.67;;;15.10;99.90;;;;;;4995270;28;20036;-82
2023/07/23 03:48:14;;;;;;;6.65;4.00;;;15.10;99.90;;;;;;4993109;28;20996;-82
2023/07/23 03:50:39;;;;;;;5.35;3.60;;;15.10;99.90;;;;;;4994138;28;20404;-83
2023/07/23 03:53:05;;;;;;;5.43;3.83;;;15.10;99.90;;;;;;4994966;28;20038;-82
2023/07/23 03:55:32;;;;;;;7.65;3.40;;;15.10;99.90;;;;;;4993261;28;20033;-82
2023/07/23 03:57:58;;;;;;;7.13;4.13;;;15.10;99.90;;;;;;4994647;28;20065;-83
2023/07/23 04:00:23;;;;;;;5.30;3.47;;;15.10;99.90;;;;;;4991830;28;20061;-82
2023/07/23 04:02:49;;;;;;;5.88;3.88;;;15.20;99.90;;;;;;4993331;28;20030;-82
2023/07/23 04:05:14;;;;;;;5.25;3.90;;;15.20;99.90;;;;;;4992681;28;20033;-82
2023/07/23 04:07:40;;;;;;;4.75;3.65;;;15.20;99.90;;;;;;4991613;28;20040;-82
2023/07/23 04:10:06;;;;;;;6.03;3.67;;;15.20;99.90;;;;;;4991500;28;20018;-82
2023/07/23 04:12:33;;;;;;;6.57;3.55;;;15.30;99.90;;;;;;4993294;28;20149;-82
2023/07/23 04:15:00;;;;;;;8.80;3.72;;;15.30;99.90;;;;;;4991183;28;20121;-82
2023/07/23 04:17:26;;;;;;;6.15;3.55;;;15.30;99.90;;;;;;4991959;28;20884;-82
2023/07/23 04:19:51;;;;;;;5.18;3.65;;;15.30;99.90;;;;;;4992975;28;20104;-82
2023/07/23 04:22:17;;;;;;;5.50;3.60;;;15.40;99.90;;;;;;4992794;28;20045;-82
2023/07/23 04:24:42;;;;;;;6.38;3.70;;;15.40;99.90;;;;;;4991749;28;20172;-82
2023/07/23 04:27:08;;;;;;;4.72;3.65;;;15.40;99.90;;;;;;4991726;28;20397;-82
2023/07/23 04:29:33;;;;;;;5.15;3.72;;;15.50;99.90;;;;;;4990891;28;20362;-82
2023/07/23 04:31:59;;;;;;;5.43;3.80;;;15.50;99.90;;;;;;4993268;28;20037;-82
2023/07/23 04:34:24;;;;;;;6.10;3.60;;;15.50;99.90;;;;;;4991279;28;20030;-82
2023/07/23 04:36:51;;;;;;;7.30;3.70;;;15.50;99.90;;;;;;4992597;28;20027;-83
2023/07/23 04:39:18;;;;;;;4.32;3.10;;;15.60;99.90;;;;;;4991048;28;20065;-82
2023/07/23 04:41:44;;;;;;;7.05;3.50;;;15.60;99.90;;;;;;4992809;28;20681;-82
2023/07/23 04:44:09;;;;;;;7.57;3.47;;;15.70;99.90;;;;;;4987760;28;20053;-74
2023/07/23 04:46:35;;;;;;;5.57;3.47;;;15.70;99.90;;;;;;4982408;28;20544;-74
2023/07/23 04:49:00;;;;;;;9.77;3.55;;;15.80;99.90;;;;;;4985159;28;20112;-73
2023/07/23 04:51:26;;;;;;;4.90;3.10;;;15.80;99.90;;;;;;4983792;28;20035;-75
2023/07/23 04:53:51;;;;;;;5.88;4.03;;;15.90;99.90;;;;;;4980740;28;20034;-74
2023/07/23 04:56:17;;;;;;;6.75;3.65;;;16.00;99.90;;;;;;4984962;28;20144;-81
2023/07/23 04:58:42;;;;;;;5.65;3.75;;;16.00;99.90;;;;;;4985523;28;20125;-74
2023/07/23 05:01:10;;;;;;;5.95;3.42;;;16.10;99.90;;;;;;4985299;28;20613;-74
2023/07/23 05:03:36;;;;;;;5.97;3.33;;;16.20;99.90;;;;;;5001040;28;20033;-74
2023/07/23 05:06:04;;;;;;;5.00;3.70;;;16.30;99.90;;;;;;4985050;28;21421;-73
2023/07/23 05:08:30;;;;;;;6.85;3.33;;;16.40;99.90;;;;;;4984331;28;20026;-73
2023/07/23 05:11:00;;;;;;;6.05;3.22;;;16.50;99.90;;;;;;4986199;28;20121;-74
2023/07/23 05:13:26;;;;;;;4.85;3.20;;;16.50;99.90;;;;;;4986402;28;20127;-74
2023/07/23 05:15:52;;;;;;;5.53;3.63;;;16.60;99.90;;;;;;4985511;28;20730;-74
2023/07/23 05:18:18;;;;;;;7.03;3.33;;;16.70;99.90;;;;;;4986234;28;20092;-74
2023/07/23 05:20:44;;;;;;;4.60;3.20;;;16.80;99.90;;;;;;4986963;28;20027;-74
2023/07/23 05:23:09;;;;;;;5.28;3.50;;;16.90;99.90;;;;;;4986105;28;20407;-74
2023/07/23 05:25:35;;;;;;;14.30;4.05;;;17.00;99.90;;;;;;4985916;28;20421;-75
2023/07/23 05:28:01;;;;;;;5.32;3.67;;;17.10;99.90;;;;;;4986172;28;20030;-74
2023/07/23 05:30:27;;;;;;;4.97;3.17;;;17.20;99.90;;;;;;4986174;28;20068;-73
2023/07/23 05:32:52;;;;;;;5.25;3.70;;;17.30;99.90;;;;;;4986756;28;20298;-73
2023/07/23 05:35:18;;;;;;;6.30;3.80;;;17.40;99.90;;;;;;4986765;28;20042;-74
2023/07/23 05:37:43;;;;;;;3.67;2.83;;;17.50;99.90;;;;;;4985992;28;20399;-74
2023/07/23 05:40:09;;;;;;;4.82;3.38;;;17.60;99.90;;;;;;4985949;28;20113;-73
2023/07/23 05:42:35;;;;;;;5.68;3.17;;;17.80;99.90;;;;;;4983433;28;20092;-74
2023/07/23 05:45:00;;;;;;;4.65;3.10;;;17.90;99.90;;;;;;4985607;28;20033;-74
2023/07/23 05:47:26;;;;;;;6.38;3.63;;;18.10;99.90;;;;;;4985841;28;20018;-74
2023/07/23 05:49:52;;;;;;;6.57;3.50;;;18.20;99.90;;;;;;4984454;28;20058;-74
2023/07/23 05:52:17;;;;;;;4.28;3.22;;;18.30;99.90;;;;;;4985598;28;20030;-73
2023/07/23 05:54:43;;;;;;;6.53;4.05;;;18.50;99.90;;;;;;4984848;28;20018;-74
2023/07/23 05:57:09;;;;;;;4.00;3.15;;;18.70;99.90;;;;;;4984438;28;20030;-74
2023/07/23 05:59:34;;;;;;;5.22;3.25;;;18.80;99.90;;;;;;4986265;28;20033;-74
2023/07/23 06:02:00;;;;;;;4.25;3.42;;;18.90;99.90;;;;;;4984479;28;20048;-74
2023/07/23 06:04:25;;;;;;;3.97;3.10;;;19.10;99.90;;;;;;4987679;28;20026;-74
2023/07/23 06:06:51;;;;;;;5.32;3.40;;;19.30;99.90;;;;;;4989579;28;20026;-74
2023/07/23 06:09:17;;;;;;;5.15;3.30;;;19.40;99.90;;;;;;4989997;28;20026;-74
2023/07/23 06:11:43;;;;;;;6.03;3.22;;;19.50;99.90;;;;;;4988923;28;20038;-74
2023/07/23 06:14:09;;;;;;;6.28;3.60;;;19.70;99.90;;;;;;4988315;28;20057;-74
2023/07/23 06:16:34;;;;;;;7.57;3.33;;;19.80;99.90;;;;;;4988264;28;20029;-74
2023/07/23 06:19:00;;;;;;;5.38;3.53;;;19.90;99.90;;;;;;4988758;28;20679;-73
2023/07/23 06:21:25;;;;;;;4.40;3.20;;;20.00;99.90;;;;;;4987247;28;20506;-75
2023/07/23 06:23:54;;;;;;;4.57;3.40;;;20.10;99.90;;;;;;4987488;28;20907;-75
2023/07/23 06:26:21;;;;;;;7.38;3.20;;;20.30;99.90;;;;;;4987396;28;20048;-75
2023/07/23 06:28:47;;;;;;;4.30;2.95;;;20.40;99.90;;;;;;4988364;28;20037;-76
2023/07/23 06:31:13;;;;;;;16.50;3.47;;;20.50;99.90;;;;;;4988827;28;20030;-74
2023/07/23 06:33:38;;;;;;;4.97;3.38;;;20.60;99.90;;;;;;5002366;28;20038;-72
2023/07/23 06:36:04;;;;;;;6.00;3.33;;;20.80;99.90;;;;;;4986203;28;20026;-75
2023/07/23 06:38:30;;;;;;;5.63;2.80;;;20.90;99.90;;;;;;4989436;28;20117;-74
2023/07/23 06:40:56;;;;;;;4.88;2.60;;;21.10;99.90;;;;;;4988992;28;20096;-75
2023/07/23 06:43:23;;;;;;;5.05;2.92;;;21.20;99.90;;;;;;4988906;28;20068;-75
2023/07/23 06:45:50;;;;;;;3.95;3.00;;;21.20;99.90;;;;;;4987839;28;20030;-75
2023/07/23 06:48:18;;;;;;;6.38;3.40;;;21.30;99.90;;;;;;4987640;28;20037;-74
2023/07/23 06:50:46;;;;;;;5.55;4.13;;;21.30;99.90;;;;;;4987348;28;20042;-75
2023/07/23 06:53:13;;;;;;;6.10;3.20;;;21.30;99.90;;;;;;4987409;28;20034;-76
2023/07/23 06:56:18;;;;;;;4.68;2.88;;;21.30;99.90;;;;;;4986255;28;20030;-75
2023/07/23 06:58:45;;;;;;;3.55;3.03;;;21.30;99.90;;;;;;4952662;28;20455;-80
2023/07/23 07:01:11;;;;;;;5.45;3.17;;;21.30;99.90;;;;;;4952880;28;20054;-75
2023/07/23 07:03:36;;;;;;;5.35;3.10;;;21.40;99.90;;;;;;4970909;28;20042;-75
2023/07/23 07:06:04;;;;;;;3.80;3.00;;;21.40;99.90;;;;;;4988051;28;20021;-75
2023/07/23 07:08:30;;;;;;;4.60;3.70;;;21.40;99.90;;;;;;4987923;28;20038;-80
2023/07/23 07:11:00;;;;;;;5.05;3.05;;;21.50;99.90;;;;;;4986772;28;20105;-75
2023/07/23 07:13:27;;;;;;;5.25;3.10;;;21.60;99.90;;;;;;4986841;28;20038;-74
2023/07/23 07:15:53;;;;;;;4.45;2.65;;;21.70;99.90;;;;;;4986372;28;20025;-75
2023/07/23 07:18:18;;;;;;;6.60;3.58;;;21.70;99.90;;;;;;4985623;28;20068;-77
2023/07/23 07:20:44;;;;;;;3.75;2.70;;;21.80;99.90;;;;;;4985839;28;20148;-75
2023/07/23 07:23:09;;;;;;;5.85;3.13;;;21.90;99.90;;;;;;4985719;28;20022;-76
2023/07/23 07:25:36;;;;;;;4.30;3.10;;;22.00;99.90;;;;;;4984429;28;20034;-75
2023/07/23 07:28:01;;;;;;;4.55;2.92;;;22.10;99.90;;;;;;4983929;28;20034;-75
2023/07/23 07:30:27;;;;;;;4.68;3.00;;;22.20;99.90;;;;;;4983798;28;20029;-75
2023/07/23 07:32:53;;;;;;;4.78;3.47;;;22.30;99.90;;;;;;4983754;28;20098;-75
2023/07/23 07:35:19;;;;;;;3.95;3.10;;;22.40;99.90;;;;;;4983634;28;20388;-75
2023/07/23 07:37:45;;;;;;;3.83;2.75;;;22.40;99.90;;;;;;4985322;28;20492;-75
2023/07/23 07:40:13;;;;;;;4.60;3.05;;;22.60;99.90;;;;;;4985354;28;20046;-76
2023/07/23 07:42:39;;;;;;;5.20;2.97;;;22.70;99.90;;;;;;4985524;28;20910;-77
2023/07/23 07:45:05;;;;;;;6.18;3.00;;;22.80;99.90;;;;;;4986508;28;20027;-73
2023/07/23 07:47:30;;;;;;;4.40;2.95;;;22.90;99.90;;;;;;4986784;28;20027;-74
2023/07/23 07:49:56;;;;;;;3.10;2.53;;;23.00;99.90;;;;;;4987309;28;20489;-74
2023/07/23 07:52:21;;;;;;;4.25;3.00;;;23.10;99.90;;;;;;4986399;28;20045;-73
2023/07/23 07:54:47;;;;;;;5.03;2.72;;;23.10;99.90;;;;;;4989035;28;20476;-79
2023/07/23 07:57:13;;;;;;;3.75;2.90;;;23.20;99.90;;;;;;4989540;28;20580;-77
2023/07/23 07:59:39;;;;;;;7.32;3.35;;;23.30;99.90;;;;;;4990882;28;20381;-74
2023/07/23 08:02:05;;;;;;;4.70;3.03;;;23.40;99.90;;;;;;4986316;28;20119;-73
2023/07/23 08:04:31;;;;;;;8.05;3.15;;;23.50;99.90;;;;;;4986983;28;20035;-74
2023/07/23 08:06:57;;;;;;;3.03;2.47;;;23.60;99.90;;;;;;4985843;28;20048;-73
2023/07/23 08:09:24;;;;;;;6.72;3.30;;;23.70;99.90;;;;;;4986547;28;20062;-74
2023/07/23 08:11:50;;;;;;;3.45;2.70;;;23.80;99.90;;;;;;4986999;28;20441;-74
2023/07/23 08:14:18;;;;;;;4.32;2.58;;;23.90;99.90;;;;;;4986530;28;20065;-74
2023/07/23 08:16:44;;;;;;;6.13;3.08;;;24.10;99.90;;;;;;4986404;28;20035;-79
2023/07/23 08:19:10;;;;;;;3.72;2.53;;;24.10;99.90;;;;;;4989405;28;20084;-79
2023/07/23 08:21:35;;;;;;;4.57;2.80;;;24.40;99.90;;;;;;4986298;28;20568;-74
2023/07/23 08:24:01;;;;;;;3.90;2.83;;;24.40;99.90;;;;;;4987473;28;20505;-74
2023/07/23 08:26:29;;;;;;;5.30;3.03;;;24.60;99.90;;;;;;4984827;28;20126;-76
2023/07/23 08:28:59;;;;;;;3.60;2.60;;;24.50;99.90;;;;;;4986106;28;20111;-80
2023/07/23 08:31:25;;;;;;;3.95;2.47;;;24.60;99.90;;;;;;4988636;28;20125;-84
2023/07/23 08:33:52;;;;;;;9.07;2.80;;;24.70;99.90;;;;;;4985687;28;20033;-82
2023/07/23 08:36:18;;;;;;;4.43;2.65;;;24.90;99.90;;;;;;4988208;28;20053;-82
2023/07/23 08:38:44;;;;;;;3.15;2.30;;;24.90;99.90;;;;;;4992977;28;20026;-83
2023/07/23 08:41:25;;;;;;;4.43;2.90;;;25.10;99.90;;;;;;4994013;28;20030;-82
2023/07/23 08:44:30;;;;;;;3.90;2.25;;;25.00;99.90;;;;;;4989425;28;20029;-83
2023/07/23 08:47:13;;;;;;;4.45;2.58;;;25.10;99.90;;;;;;4989331;28;20030;-83
2023/07/23 08:49:42;;;;;;;4.22;2.47;;;25.10;99.90;;;;;;4990773;28;20065;-82
2023/07/23 08:52:11;;;;;;;3.92;2.20;;;25.00;99.90;;;;;;4989263;28;20034;-81
2023/07/23 08:54:39;;;;;;;5.00;2.38;;;24.90;99.90;;;;;;4988753;28;20049;-82
2023/07/23 08:57:06;;;;;;;4.95;2.50;;;24.90;99.90;;;;;;4990086;28;20034;-82
2023/07/23 08:59:33;;;;;;;3.55;2.60;;;24.90;99.90;;;;;;4989523;28;20157;-82
2023/07/23 09:02:00;;;;;;;5.57;2.85;;;25.10;99.90;;;;;;4990535;28;20026;-82
2023/07/23 09:04:26;;;;;;;4.07;2.97;;;25.30;99.90;;;;;;4989785;28;20030;-82
2023/07/23 09:06:51;;;;;;;5.20;2.97;;;25.40;99.90;;;;;;4989866;28;20018;-83
2023/07/23 09:09:18;;;;;;;5.47;3.08;;;25.60;99.90;;;;;;4987878;28;20081;-81
2023/07/23 09:11:44;;;;;;;3.53;2.53;;;25.70;99.90;;;;;;4991346;28;20041;-81
2023/07/23 09:14:14;;;;;;;5.05;2.70;;;25.80;99.90;;;;;;4989200;28;20025;-82
2023/07/23 09:16:43;;;;;;;5.90;3.05;;;25.80;99.90;;;;;;4989751;28;20033;-82
2023/07/23 09:19:09;;;;;;;2.95;2.40;;;25.90;99.90;;;;;;4990567;28;20034;-81
2023/07/23 09:21:37;;;;;;;4.25;2.90;;;26.20;99.90;;;;;;4989077;28;20042;-82
2023/07/23 09:24:05;;;;;;;4.43;3.10;;;26.30;99.90;;;;;;4987212;28;20034;-82
2023/07/23 09:26:32;;;;;;;4.50;2.95;;;26.50;99.80;;;;;;4989026;28;20030;-83
2023/07/23 09:28:59;;;;;;;4.13;2.67;;;26.60;99.90;;;;;;4989222;28;20041;-83
2023/07/23 09:31:31;;;;;;;4.82;2.85;;;26.60;99.90;;;;;;4984370;28;20030;-88
2023/07/23 09:33:58;;;;;;;3.83;2.90;;;26.90;99.70;;;;;;4989851;28;20026;-81
2023/07/23 09:36:25;;;;;;;3.75;2.80;;;27.00;99.90;;;;;;4988768;28;20132;-82
2023/07/23 09:38:59;;;;;;;5.90;3.28;;;27.20;98.00;;;;;;4987883;28;20034;-82
2023/07/23 09:41:37;;;;;;;4.30;2.88;;;27.40;98.00;;;;;;4988976;28;20046;-82
2023/07/23 09:44:08;;;;;;;4.25;3.05;;;27.70;97.20;;;;;;4986655;28;20442;-82
2023/07/23 09:46:33;;;;;;;5.28;3.35;;;28.00;97.00;;;;;;4987368;28;20096;-83
2023/07/23 09:48:59;;;;;;;3.83;2.75;;;28.30;97.20;;;;;;4988835;28;21532;-82
2023/07/23 09:51:25;;;;;;;5.03;3.20;;;28.50;96.50;;;;;;4986719;28;20034;-82
2023/07/23 09:53:51;;;;;;;6.68;3.45;;;28.90;95.60;;;;;;4987535;28;20030;-82
2023/07/23 09:56:18;;;;;;;6.22;3.60;;;29.10;94.20;;;;;;4989611;28;20026;-84
2023/07/23 09:58:48;;;;;;;4.93;3.35;;;29.30;93.40;;;;;;4985962;28;20192;-83
2023/07/23 10:01:16;;;;;;;5.68;3.78;;;29.60;91.90;;;;;;4988001;28;20141;-81
2023/07/23 10:03:43;;;;;;;4.07;3.40;;;29.60;90.20;;;;;;4989012;28;20038;-82
2023/07/23 10:06:11;;;;;;;6.85;3.90;;;29.50;91.60;;;;;;4986904;28;20488;-82
2023/07/23 10:08:42;;;;;;;7.45;4.10;;;29.30;92.60;;;;;;4990455;28;20018;-82
2023/07/23 10:11:09;;;;;;;5.43;3.55;;;29.40;92.50;;;;;;4989664;28;20035;-82
2023/07/23 10:13:36;;;;;;;7.70;3.75;;;29.30;90.70;;;;;;4989981;28;20022;-82
2023/07/23 10:16:05;;;;;;;7.85;4.35;;;29.20;91.00;;;;;;4988256;28;20472;-81
2023/07/23 10:18:33;;;;;;;5.22;3.50;;;29.30;90.50;;;;;;4988301;28;20101;-81
2023/07/23 10:20:59;;;;;;;5.03;4.00;;;29.20;89.80;;;;;;4988785;28;20048;-81
2023/07/23 10:23:25;;;;;;;6.22;4.60;;;28.90;88.70;;;;;;4988915;28;20049;-81
2023/07/23 10:26:17;;;;;;;9.77;5.50;;;28.60;88.60;;;;;;4987123;28;20100;-81
2023/07/23 10:28:42;;;;;;;9.02;5.30;;;28.50;90.60;;;;;;4985033;28;20108;-81
2023/07/23 10:31:26;;;;;;;7.63;5.53;;;28.50;90.80;;;;;;4983948;28;20026;-81
2023/07/23 10:33:52;;;;;;;8.25;5.43;;;28.60;90.30;;;;;;4984834;28;20038;-81
2023/07/23 10:36:19;;;;;;;7.90;6.00;;;28.30;90.20;;;;;;4982018;28;20030;-82
2023/07/23 10:38:46;;;;;;;8.52;5.70;;;28.50;90.80;;;;;;4989135;28;20033;-82
2023/07/23 10:41:12;;;;;;;9.77;5.72;;;28.60;90.40;;;;;;4988075;28;20035;-82
2023/07/23 10:43:48;;;;;;;9.85;6.45;;;28.70;88.00;;;;;;4987343;28;20038;-82
2023/07/23 10:46:18;;;;;;;8.32;5.78;;;28.80;88.20;;;;;;4986239;28;20520;-81
2023/07/23 10:48:48;;;;;;;8.10;5.65;;;29.10;86.70;;;;;;4985537;28;20110;-81
2023/07/23 10:51:16;;;;;;;8.48;5.88;;;29.40;90.00;;;;;;4985217;28;20028;-82
2023/07/23 10:54:02;;;;;;;9.30;6.22;;;29.60;87.60;;;;;;4990887;28;20027;-82
2023/07/23 10:56:35;;;;;;;9.40;5.80;;;29.80;87.80;;;;;;4990852;28;20031;-82
2023/07/23 10:59:24;;;;;;;8.53;5.90;;;30.10;86.50;;;;;;4992169;28;20029;-82
2023/07/23 11:01:51;;;;;;;9.52;5.22;;;30.40;87.00;;;;;;4991591;28;20290;-82
2023/07/23 11:04:24;;;;;;;7.57;5.82;;;30.50;86.80;;;;;;4990083;28;20058;-83
2023/07/23 11:07:06;;;;;;;8.40;6.13;;;30.60;83.60;;;;;;4990477;28;20515;-81
2023/07/23 11:09:37;;;;;;;9.40;6.40;;;30.60;82.40;;;;;;4991448;28;20033;-82
2023/07/23 11:12:05;;;;;;;7.97;6.00;;;30.90;81.00;;;;;;4992475;28;20438;-81
2023/07/23 11:14:31;;;;;;;7.65;5.75;;;30.90;82.30;;;;;;4992505;28;20022;-81
2023/07/23 11:16:59;;;;;;;8.50;5.95;;;31.10;82.80;;;;;;4992258;28;20157;-81
2023/07/23 11:19:26;;;;;;;8.68;6.07;;;31.20;81.20;;;;;;4990165;28;20482;-82
2023/07/23 11:21:58;;;;;;;10.40;6.28;;;31.30;81.00;;;;;;4991222;28;20089;-82
2023/07/23 11:24:26;;;;;;;9.43;5.75;;;31.20;76.70;;;;;;4990639;28;20103;-81
2023/07/23 11:26:52;;;;;;;9.35;5.75;;;31.20;78.50;;;;;;4991955;28;20053;-81
2023/07/23 11:29:18;;;;;;;7.55;5.85;;;31.20;79.90;;;;;;4990496;28;20747;-81
2023/07/23 11:31:45;;;;;;;7.82;6.00;;;31.30;80.20;;;;;;4991124;28;20057;-82
2023/07/23 11:34:12;;;;;;;8.00;5.82;;;31.50;81.90;;;;;;4990601;28;20034;-81
2023/07/23 11:36:39;;;;;;;9.48;6.38;;;31.60;78.80;;;;;;4990469;28;20038;-81
2023/07/23 11:39:05;;;;;;;8.27;5.82;;;31.70;79.10;;;;;;4991275;28;20052;-81
2023/07/23 11:41:33;;;;;;;8.35;6.20;;;31.70;76.20;;;;;;4991362;28;20125;-81
2023/07/23 11:44:03;;;;;;;10.68;5.50;;;31.60;77.20;;;;;;4990718;28;20206;-82
2023/07/23 11:46:32;;;;;;;8.30;5.85;;;31.70;78.50;;;;;;4989850;28;20042;-81
2023/07/23 11:48:58;;;;;;;8.32;6.07;;;31.60;79.40;;;;;;4991645;28;20030;-81
2023/07/23 11:51:24;;;;;;;7.97;6.35;;;31.60;79.20;;;;;;4988200;28;20065;-82
2023/07/23 11:53:51;;;;;;;9.82;6.25;;;31.50;79.40;;;;;;4984077;28;20145;-79
2023/07/23 11:56:18;;;;;;;9.02;6.07;;;31.50;79.40;;;;;;4984077;28;20033;-78
2023/07/23 11:58:43;;;;;;;16.67;5.75;;;31.40;77.90;;;;;;4984238;28;20031;-76
2023/07/23 12:01:10;;;;;;;8.93;5.78;;;31.50;78.20;;;;;;4983176;28;20499;-75
2023/07/23 12:03:40;;;;;;;9.68;6.95;;;31.30;76.90;;;;;;4984403;28;20026;-76
2023/07/23 12:06:07;;;;;;;9.50;5.95;;;30.90;77.50;;;;;;4983681;28;20085;-75
2023/07/23 12:08:35;;;;;;;10.68;5.78;;;30.90;79.90;;;;;;4984093;28;20101;-72
2023/07/23 12:11:12;;;;;;;9.75;6.40;;;30.80;78.80;;;;;;4978131;28;20137;-71
2023/07/23 12:13:43;;;;;;;8.63;6.10;;;30.80;81.60;;;;;;4980739;28;20512;-71
2023/07/23 12:16:41;;;;;;;10.55;6.43;;;31.00;78.60;;;;;;4979887;28;20034;-72
2023/07/23 12:19:13;;;;;;;9.98;5.32;;;31.40;80.10;;;;;;4982353;28;20038;-70
2023/07/23 12:21:40;;;;;;;10.75;6.07;;;31.70;78.50;;;;;;4982548;28;20030;-71
2023/07/23 12:24:22;;;;;;;9.45;5.93;;;31.50;78.70;;;;;;4983994;28;20058;-71
2023/07/23 12:26:50;;;;;;;11.63;6.07;;;31.40;79.70;;;;;;4982358;28;20831;-71
2023/07/23 12:29:17;;;;;;;8.38;6.20;;;31.30;78.90;;;;;;4983572;28;20623;-72
2023/07/23 12:31:47;;;;;;;10.00;6.35;;;31.00;77.60;;;;;;4983908;28;20033;-71
2023/07/23 12:34:14;;;;;;;10.85;6.50;;;30.90;79.60;;;;;;4982569;28;20034;-71
2023/07/23 12:36:40;;;;;;;11.45;6.15;;;31.00;77.70;;;;;;4982631;28;20045;-71
2023/07/23 12:39:07;;;;;;;8.05;6.30;;;31.00;78.60;;;;;;4982672;28;20022;-76
2023/07/23 12:41:34;;;;;;;7.18;5.60;;;30.90;79.10;;;;;;4982695;28;20053;-71
2023/07/23 12:44:00;;;;;;;8.85;6.65;;;31.10;79.10;;;;;;4982077;28;20035;-72
2023/07/23 12:46:26;;;;;;;11.45;6.65;;;31.30;78.90;;;;;;4981361;28;20431;-71